createdAt,value
2019-05-29T00:01:47.565Z,83.10
2019-05-29T00:04:18.488Z,82.90
2019-05-29T00:06:48.571Z,82.70
2019-05-29T00:09:18.416Z,82.90
2019-05-29T00:11:48.300Z,82.90
2019-05-29T00:14:26.979Z,82.70
2019-05-29T00:16:49.873Z,82.50
2019-05-29T00:19:19.407Z,82.70
2019-05-29T00:21:49.157Z,82.60
2019-05-29T00:24:19.005Z,82.30
2019-05-29T00:26:49.346Z,82.70
2019-05-29T00:29:19.505Z,82.60
2019-05-29T00:31:49.413Z,82.60
2019-05-29T00:34:18.946Z,82.90
2019-05-29T00:36:48.594Z,82.80
2019-05-29T00:39:18.893Z,82.70
2019-05-29T00:41:49.243Z,82.90
2019-05-29T00:44:33.514Z,82.50
2019-05-29T00:46:51.100Z,82.90
2019-05-29T00:49:21.043Z,82.60
2019-05-29T00:51:51.004Z,82.60
2019-05-29T00:54:20.839Z,82.50
2019-05-29T00:56:50.283Z,82.70
2019-05-29T00:59:20.009Z,82.90
2019-05-29T01:01:49.961Z,83.00
2019-05-29T01:04:20.056Z,83.60
2019-05-29T01:06:50.014Z,83.90
2019-05-29T01:09:20.749Z,84.00
2019-05-29T01:11:51.258Z,84.20
2019-05-29T01:14:21.501Z,84.50
2019-05-29T01:16:51.311Z,84.60
2019-05-29T01:19:26.755Z,84.70
2019-05-29T01:21:57.202Z,84.60
2019-05-29T01:24:27.561Z,84.10
2019-05-29T01:26:57.308Z,83.80
2019-05-29T01:29:27.239Z,83.60
2019-05-29T01:31:57.130Z,83.50
2019-05-29T01:34:27.263Z,83.50
2019-05-29T01:36:57.159Z,83.30
2019-05-29T01:39:27.730Z,83.20
2019-05-29T01:41:57.618Z,83.20
2019-05-29T01:44:27.819Z,83.20
2019-05-29T01:46:57.634Z,83.10
2019-05-29T01:49:28.062Z,83.30
2019-05-29T01:51:57.861Z,83.30
2019-05-29T01:54:27.987Z,83.10
2019-05-29T01:56:57.905Z,83.50
2019-05-29T01:59:28.091Z,83.70
2019-05-29T02:01:57.895Z,84.00
2019-05-29T02:04:28.182Z,84.40
2019-05-29T02:06:58.885Z,84.50
2019-05-29T02:09:28.622Z,84.50
2019-05-29T02:11:59.030Z,84.60
2019-05-29T02:14:28.715Z,84.10
2019-05-29T02:16:58.497Z,83.60
2019-05-29T02:19:28.343Z,83.60
2019-05-29T02:21:57.789Z,83.90
2019-05-29T02:24:28.568Z,84.10
2019-05-29T02:26:59.089Z,84.20
2019-05-29T02:29:30.428Z,84.00
2019-05-29T02:32:00.388Z,83.80
2019-05-29T02:34:30.091Z,83.80
2019-05-29T02:36:59.978Z,83.80
2019-05-29T02:39:31.322Z,83.90
2019-05-29T02:42:01.592Z,84.10
2019-05-29T02:44:31.018Z,83.70
2019-05-29T02:47:00.861Z,83.20
2019-05-29T02:49:30.628Z,83.10
2019-05-29T02:52:00.191Z,83.00
2019-05-29T02:54:31.942Z,83.20
2019-05-29T02:57:01.970Z,83.50
2019-05-29T02:59:32.102Z,83.60
2019-05-29T03:02:02.203Z,83.40
2019-05-29T03:04:32.833Z,82.70
2019-05-29T03:07:03.399Z,82.20
2019-05-29T03:09:33.079Z,82.80
2019-05-29T03:12:03.361Z,81.90
2019-05-29T03:14:34.585Z,81.30
2019-05-29T03:17:04.796Z,81.40
2019-05-29T03:19:35.258Z,82.00
2019-05-29T03:22:04.770Z,82.30
2019-05-29T03:24:35.856Z,83.10
2019-05-29T03:27:05.871Z,83.30
2019-05-29T03:29:35.911Z,83.50
2019-05-29T03:32:05.456Z,83.70
2019-05-29T03:34:42.237Z,83.90
2019-05-29T03:37:06.694Z,83.90
2019-05-29T03:39:36.417Z,83.90
2019-05-29T03:42:06.147Z,82.50
2019-05-29T03:44:35.820Z,82.00
2019-05-29T03:47:06.397Z,82.00
2019-05-29T03:49:37.434Z,82.30
2019-05-29T03:52:07.442Z,82.50
2019-05-29T03:54:38.595Z,82.70
2019-05-29T03:57:09.912Z,83.10
2019-05-29T03:59:41.059Z,83.70
2019-05-29T04:02:11.029Z,83.80
2019-05-29T04:04:40.634Z,84.00
2019-05-29T04:07:10.178Z,84.20
2019-05-29T04:09:39.808Z,84.10
2019-05-29T04:12:10.161Z,84.00
2019-05-29T04:14:40.092Z,84.00
2019-05-29T04:17:12.419Z,83.90
2019-05-29T04:19:44.401Z,84.00
2019-05-29T04:22:17.557Z,84.20
2019-05-29T04:24:50.128Z,83.90
2019-05-29T04:27:22.667Z,83.40
2019-05-29T04:29:53.829Z,83.60
2019-05-29T04:32:23.441Z,83.30
2019-05-29T04:34:53.089Z,83.30
2019-05-29T04:37:23.029Z,83.60
2019-05-29T04:39:53.248Z,84.00
2019-05-29T04:42:22.883Z,83.90
2019-05-29T04:44:52.959Z,83.60
2019-05-29T04:47:22.700Z,83.40
2019-05-29T04:49:53.382Z,83.40
2019-05-29T04:52:23.326Z,83.20
2019-05-29T04:54:53.048Z,83.30
2019-05-29T04:57:22.784Z,82.80
2019-05-29T04:59:52.839Z,82.70
2019-05-29T05:02:22.788Z,82.60
2019-05-29T05:04:52.710Z,81.90
2019-05-29T05:07:22.359Z,81.50
2019-05-29T05:09:51.816Z,82.40
2019-05-29T05:12:22.127Z,82.20
2019-05-29T05:14:51.678Z,81.70
2019-05-29T05:17:26.124Z,81.60
2019-05-29T05:19:53.358Z,82.10
2019-05-29T05:22:23.310Z,82.30
2019-05-29T05:24:53.401Z,76.60
2019-05-29T05:27:23.259Z,74.40
2019-05-29T05:29:53.181Z,77.10
2019-05-29T05:32:22.621Z,76.80
2019-05-29T05:34:52.135Z,76.50
2019-05-29T05:37:23.624Z,77.60
2019-05-29T05:39:53.938Z,77.50
2019-05-29T05:42:23.902Z,77.20
2019-05-29T05:44:54.596Z,78.10
2019-05-29T05:47:24.342Z,78.30
2019-05-29T05:49:53.989Z,78.30
2019-05-29T05:52:23.706Z,79.00
2019-05-29T05:54:53.666Z,78.00
2019-05-29T05:57:23.304Z,78.70
2019-05-29T05:59:53.250Z,77.60
2019-05-29T06:02:23.362Z,77.90
2019-05-29T06:04:53.962Z,77.80
2019-05-29T06:07:24.867Z,77.80
2019-05-29T06:09:54.495Z,78.60
2019-05-29T06:12:24.047Z,78.60
2019-05-29T06:14:53.570Z,79.00
2019-05-29T06:17:23.029Z,77.70
2019-05-29T06:19:52.780Z,76.00
2019-05-29T06:22:22.432Z,76.80
2019-05-29T06:24:53.553Z,78.00
2019-05-29T06:27:23.971Z,78.00
2019-05-29T06:29:55.127Z,78.50
2019-05-29T06:32:25.008Z,78.40
2019-05-29T06:34:57.289Z,77.30
2019-05-29T06:37:28.479Z,75.30
2019-05-29T06:40:00.347Z,76.50
2019-05-29T06:42:31.475Z,74.90
2019-05-29T06:45:03.437Z,74.60
2019-05-29T06:47:36.419Z,74.00
2019-05-29T06:50:08.401Z,73.80
2019-05-29T06:52:39.564Z,73.90
2019-05-29T06:55:10.723Z,73.30
2019-05-29T06:57:42.685Z,75.70
2019-05-29T07:00:14.432Z,76.40
2019-05-29T07:02:46.788Z,75.50
2019-05-29T07:05:18.092Z,76.00
2019-05-29T07:07:49.251Z,75.10
2019-05-29T07:10:20.359Z,76.00
2019-05-29T07:12:51.464Z,73.40
2019-05-29T07:15:22.599Z,72.70
2019-05-29T07:17:53.725Z,71.30
2019-05-29T07:20:24.837Z,71.90
2019-05-29T07:22:56.105Z,71.30
2019-05-29T07:25:27.218Z,71.60
2019-05-29T07:27:58.349Z,72.90
2019-05-29T07:30:30.248Z,72.10
2019-05-29T07:32:59.978Z,72.00
2019-05-29T07:35:29.690Z,68.20
2019-05-29T07:37:59.843Z,71.20
2019-05-29T07:40:29.500Z,72.90
2019-05-29T07:42:59.672Z,70.10
2019-05-29T07:45:29.342Z,67.10
2019-05-29T07:47:59.921Z,69.60
2019-05-29T07:50:30.051Z,70.90
2019-05-29T07:53:00.127Z,70.80
2019-05-29T07:55:30.038Z,67.80
2019-05-29T07:58:00.091Z,67.50
2019-05-29T08:00:35.568Z,68.90
2019-05-29T08:03:02.889Z,64.90
2019-05-29T08:05:32.920Z,68.10
2019-05-29T08:08:02.697Z,65.00
2019-05-29T08:10:32.332Z,67.20
2019-05-29T08:13:01.875Z,65.10
2019-05-29T08:15:32.195Z,65.90
2019-05-29T08:18:01.839Z,67.80
2019-05-29T08:20:31.774Z,60.80
2019-05-29T08:23:01.725Z,60.90
2019-05-29T08:25:31.359Z,63.50
2019-05-29T08:28:02.555Z,64.10
2019-05-29T08:30:32.292Z,62.40
2019-05-29T08:33:02.551Z,60.10
2019-05-29T08:35:32.287Z,56.20
2019-05-29T08:38:02.059Z,60.20
2019-05-29T08:40:31.768Z,58.30
2019-05-29T08:43:01.430Z,61.60
2019-05-29T08:45:32.051Z,56.30
2019-05-29T08:48:04.875Z,53.60
2019-05-29T08:50:35.079Z,49.00
2019-05-29T08:53:05.487Z,45.80
2019-05-29T08:55:35.237Z,53.00
2019-05-29T08:58:05.356Z,60.30
2019-05-29T09:00:35.102Z,57.90
2019-05-29T09:03:05.039Z,47.80
2019-05-29T09:05:34.701Z,53.50
2019-05-29T09:08:04.303Z,62.40
2019-05-29T09:10:34.170Z,49.80
2019-05-29T09:13:05.247Z,59.50
2019-05-29T09:15:35.368Z,40.30
2019-05-29T09:18:06.657Z,47.30
2019-05-29T09:20:57.864Z,54.90
2019-05-29T09:23:07.865Z,58.30
2019-05-29T09:25:37.499Z,54.70
2019-05-29T09:28:16.580Z,59.00
2019-05-29T09:30:46.804Z,46.40
2019-05-29T09:33:18.698Z,50.40
2019-05-29T09:35:48.127Z,50.50
2019-05-29T09:38:18.805Z,43.60
2019-05-29T09:40:52.627Z,38.00
2019-05-29T09:43:25.772Z,39.80
2019-05-29T09:45:52.170Z,44.10
2019-05-29T09:48:26.467Z,47.10
2019-05-29T09:50:54.066Z,45.70
2019-05-29T09:53:23.915Z,37.20
2019-05-29T09:55:55.349Z,42.40
2019-05-29T09:58:25.044Z,41.10
2019-05-29T10:01:16.193Z,40.60
2019-05-29T10:03:26.224Z,40.60
2019-05-29T10:05:57.495Z,37.70
2019-05-29T10:08:27.364Z,45.70
2019-05-29T10:11:05.987Z,38.60
2019-05-29T10:13:29.209Z,39.30
2019-05-29T10:16:00.469Z,42.70
2019-05-29T10:18:32.687Z,38.60
2019-05-29T10:21:03.420Z,37.00
2019-05-29T10:23:34.564Z,41.60
2019-05-29T10:26:06.431Z,41.50
2019-05-29T10:28:50.402Z,43.00
2019-05-29T10:31:10.640Z,38.50
2019-05-29T10:33:42.360Z,37.00
2019-05-29T10:36:13.621Z,35.10
2019-05-29T10:38:44.781Z,35.80
2019-05-29T10:41:15.903Z,38.80
2019-05-29T10:43:47.147Z,40.00
2019-05-29T10:46:18.279Z,39.40
2019-05-29T10:48:52.788Z,36.30
2019-05-29T10:51:22.214Z,35.70
2019-05-29T10:53:57.922Z,33.90
2019-05-29T10:56:26.256Z,34.00
2019-05-29T10:58:59.761Z,39.10
2019-05-29T11:01:30.371Z,31.90
2019-05-29T11:04:01.524Z,30.60
2019-05-29T11:06:32.673Z,31.00
2019-05-29T11:09:05.543Z,32.30
2019-05-29T11:11:36.644Z,30.00
2019-05-29T11:14:07.838Z,29.40
2019-05-29T11:16:39.939Z,32.20
2019-05-29T11:19:11.441Z,32.40
2019-05-29T11:21:42.653Z,29.00
2019-05-29T11:24:13.835Z,35.20
2019-05-29T11:26:45.331Z,31.70
2019-05-29T11:29:16.432Z,32.90
2019-05-29T11:31:48.535Z,32.40
2019-05-29T11:34:19.962Z,29.80
2019-05-29T11:36:51.914Z,30.80
2019-05-29T11:39:23.185Z,30.60
2019-05-29T11:41:54.751Z,31.30
2019-05-29T11:44:26.175Z,31.30
2019-05-29T11:46:58.226Z,32.50
2019-05-29T11:49:29.501Z,31.90
2019-05-29T11:52:22.920Z,30.80
2019-05-29T11:54:33.457Z,31.40
2019-05-29T11:57:04.621Z,33.20
2019-05-29T11:59:35.870Z,31.40
2019-05-29T12:02:07.081Z,29.60
2019-05-29T12:04:38.260Z,30.10
2019-05-29T12:07:08.596Z,30.60
2019-05-29T12:09:39.781Z,26.90
2019-05-29T12:12:10.935Z,27.20
2019-05-29T12:14:58.832Z,29.00
2019-05-29T12:17:14.940Z,29.30
2019-05-29T12:19:46.057Z,28.00
2019-05-29T12:22:17.263Z,27.00
2019-05-29T12:24:48.400Z,27.40
2019-05-29T12:27:19.600Z,26.80
2019-05-29T12:29:50.721Z,25.50
2019-05-29T12:32:21.904Z,28.40
2019-05-29T12:34:55.105Z,27.90
2019-05-29T12:37:25.898Z,25.00
2019-05-29T12:39:57.513Z,28.20
2019-05-29T12:42:28.719Z,29.90
2019-05-29T12:44:59.909Z,27.10
2019-05-29T12:47:31.083Z,26.40
2019-05-29T12:50:04.241Z,27.30
2019-05-29T12:52:35.595Z,27.60
2019-05-29T12:55:08.056Z,28.30
2019-05-29T12:57:39.302Z,26.40
2019-05-29T13:00:18.769Z,27.20
2019-05-29T13:02:49.873Z,25.60
2019-05-29T13:05:21.442Z,28.10
2019-05-29T13:07:54.704Z,27.50
2019-05-29T13:10:30.508Z,26.60
2019-05-29T13:13:07.049Z,24.40
2019-05-29T13:15:32.894Z,27.40
2019-05-29T13:18:09.274Z,26.00
2019-05-29T13:20:37.071Z,27.10
2019-05-29T13:23:08.332Z,28.20
2019-05-29T13:25:39.582Z,26.70
2019-05-29T13:28:10.763Z,27.80
2019-05-29T13:30:41.884Z,25.40
2019-05-29T13:33:13.024Z,27.40
2019-05-29T13:35:44.142Z,26.50
2019-05-29T13:38:15.244Z,26.00
2019-05-29T13:40:46.382Z,24.40
2019-05-29T13:43:17.471Z,23.80
2019-05-29T13:45:48.625Z,26.10
2019-05-29T13:48:22.727Z,24.30
2019-05-29T13:50:52.567Z,24.70
2019-05-29T13:53:23.676Z,26.90
2019-05-29T13:55:54.876Z,24.00
2019-05-29T13:58:25.973Z,23.40
2019-05-29T14:00:58.175Z,24.60
2019-05-29T14:03:29.453Z,23.20
2019-05-29T14:06:00.914Z,21.60
2019-05-29T14:08:32.183Z,21.60
2019-05-29T14:11:03.543Z,24.40
2019-05-29T14:13:35.050Z,24.50
2019-05-29T14:16:06.780Z,24.20
2019-05-29T14:18:38.148Z,23.50
2019-05-29T14:21:09.416Z,22.70
2019-05-29T14:23:40.527Z,22.60
2019-05-29T14:26:13.026Z,24.80
2019-05-29T14:28:44.336Z,23.30
2019-05-29T14:31:15.504Z,21.70
2019-05-29T14:33:46.688Z,24.10
2019-05-29T14:36:17.797Z,24.20
2019-05-29T14:38:48.987Z,24.90
2019-05-29T14:41:20.169Z,23.90
2019-05-29T14:43:51.383Z,23.90
2019-05-29T14:46:22.557Z,25.30
2019-05-29T14:48:53.707Z,26.80
2019-05-29T14:51:24.895Z,25.50
2019-05-29T14:53:56.066Z,24.00
2019-05-29T14:56:27.389Z,23.10
2019-05-29T14:58:58.692Z,22.60
2019-05-29T15:01:29.822Z,21.20
2019-05-29T15:04:00.996Z,21.30
2019-05-29T15:06:32.121Z,22.60
2019-05-29T15:09:05.533Z,20.70
2019-05-29T15:11:36.711Z,20.60
2019-05-29T15:14:10.131Z,21.40
2019-05-29T15:16:41.379Z,21.10
2019-05-29T15:19:13.208Z,21.50
2019-05-29T15:21:44.653Z,21.20
2019-05-29T15:24:15.992Z,20.10
2019-05-29T15:26:47.164Z,18.80
2019-05-29T15:29:18.348Z,17.70
2019-05-29T15:31:49.470Z,17.90
2019-05-29T15:34:20.602Z,18.80
2019-05-29T15:36:51.724Z,18.60
2019-05-29T15:39:22.882Z,19.40
2019-05-29T15:41:53.984Z,17.80
2019-05-29T15:44:25.230Z,16.80
2019-05-29T15:46:56.369Z,18.40
2019-05-29T15:49:27.563Z,19.50
2019-05-29T15:51:58.659Z,20.60
2019-05-29T15:54:29.792Z,22.30
2019-05-29T15:57:00.899Z,22.20
2019-05-29T15:59:32.005Z,23.80
2019-05-29T16:02:03.636Z,23.10
2019-05-29T16:04:34.763Z,23.20
2019-05-29T16:07:05.993Z,24.80
2019-05-29T16:09:37.379Z,23.90
2019-05-29T16:12:08.772Z,25.60
2019-05-29T16:14:40.499Z,25.80
2019-05-29T16:17:11.603Z,25.60
2019-05-29T16:19:42.796Z,24.50
2019-05-29T16:22:14.369Z,25.40
2019-05-29T16:24:45.782Z,24.60
2019-05-29T16:27:18.104Z,24.30
2019-05-29T16:29:49.383Z,23.20
2019-05-29T16:32:21.676Z,23.20
2019-05-29T16:34:53.105Z,23.00
2019-05-29T16:37:24.219Z,23.20
2019-05-29T16:39:55.348Z,23.40
2019-05-29T16:42:26.464Z,22.90
2019-05-29T16:44:57.580Z,23.50
2019-05-29T16:47:28.702Z,23.90
2019-05-29T16:49:59.820Z,24.60
2019-05-29T16:52:30.932Z,23.60
2019-05-29T16:55:02.174Z,24.70
2019-05-29T16:57:33.357Z,25.00
2019-05-29T17:00:09.057Z,25.30
2019-05-29T17:02:40.430Z,25.00
2019-05-29T17:05:11.832Z,25.40
2019-05-29T17:07:42.986Z,29.30
2019-05-29T17:10:14.462Z,32.60
2019-05-29T17:12:45.641Z,35.40
2019-05-29T17:15:18.816Z,36.80
2019-05-29T17:17:50.307Z,37.90
2019-05-29T17:20:39.347Z,38.70
2019-05-29T17:23:11.305Z,39.20
2019-05-29T17:25:42.727Z,41.00
2019-05-29T17:28:15.034Z,41.30
2019-05-29T17:30:46.529Z,41.70
2019-05-29T17:33:18.899Z,42.80
2019-05-29T17:35:50.463Z,42.60
2019-05-29T17:38:21.604Z,44.90
2019-05-29T17:40:52.797Z,43.90
2019-05-29T17:43:27.034Z,46.10
2019-05-29T17:45:56.866Z,45.60
2019-05-29T17:48:28.054Z,45.70
2019-05-29T17:50:59.207Z,46.60
2019-05-29T17:53:30.326Z,46.10
2019-05-29T17:56:01.456Z,47.50
2019-05-29T17:58:32.663Z,47.50
2019-05-29T18:01:04.049Z,49.20
2019-05-29T18:03:35.184Z,49.80
2019-05-29T18:06:06.379Z,50.90
2019-05-29T18:08:37.497Z,50.50
2019-05-29T18:11:08.665Z,50.30
2019-05-29T18:13:39.784Z,51.50
2019-05-29T18:16:10.955Z,53.70
2019-05-29T18:18:42.065Z,54.90
2019-05-29T18:21:14.236Z,53.20
2019-05-29T18:23:45.403Z,53.50
2019-05-29T18:26:17.854Z,52.70
2019-05-29T18:28:50.097Z,53.80
2019-05-29T18:31:22.442Z,54.10
2019-05-29T18:33:53.727Z,56.60
2019-05-29T18:36:25.369Z,52.90
2019-05-29T18:38:56.741Z,53.90
2019-05-29T18:41:28.502Z,57.90
2019-05-29T18:43:59.856Z,54.90
2019-05-29T18:46:31.118Z,52.10
2019-05-29T18:49:02.244Z,56.40
2019-05-29T18:51:33.383Z,58.00
2019-05-29T18:54:04.643Z,57.00
2019-05-29T18:56:35.772Z,59.70
2019-05-29T18:59:06.902Z,59.40
2019-05-29T19:01:38.102Z,57.90
2019-05-29T19:04:09.272Z,57.80
2019-05-29T19:06:40.414Z,63.10
2019-05-29T19:09:11.536Z,66.00
2019-05-29T19:11:42.656Z,67.50
2019-05-29T19:14:13.771Z,66.40
2019-05-29T19:16:44.901Z,66.10
2019-05-29T19:19:16.115Z,67.60
2019-05-29T19:21:47.330Z,68.00
2019-05-29T19:24:18.522Z,66.20
2019-05-29T19:26:49.710Z,64.00
2019-05-29T19:29:20.848Z,64.90
2019-05-29T19:31:52.130Z,65.80
2019-05-29T19:34:23.316Z,61.30
2019-05-29T19:36:54.470Z,62.20
2019-05-29T19:39:25.845Z,63.40
2019-05-29T19:41:57.093Z,65.20
2019-05-29T19:44:28.391Z,66.80
2019-05-29T19:46:59.699Z,61.20
2019-05-29T19:49:30.966Z,59.50
2019-05-29T19:52:02.164Z,63.20
2019-05-29T19:54:33.681Z,61.50
2019-05-29T19:57:05.067Z,56.70
2019-05-29T19:59:36.367Z,57.00
2019-05-29T20:02:08.265Z,59.60
2019-05-29T20:04:39.443Z,58.70
2019-05-29T20:07:10.639Z,61.60
2019-05-29T20:09:41.764Z,63.70
2019-05-29T20:12:12.885Z,62.00
2019-05-29T20:14:44.064Z,60.80
2019-05-29T20:17:15.211Z,62.00
2019-05-29T20:19:46.390Z,57.50
2019-05-29T20:22:17.536Z,58.30
2019-05-29T20:24:50.098Z,58.50
2019-05-29T20:27:22.480Z,59.50
2019-05-29T20:29:53.595Z,59.50
2019-05-29T20:32:24.753Z,58.60
2019-05-29T20:34:55.856Z,57.00
2019-05-29T20:37:27.057Z,57.50
2019-05-29T20:39:59.350Z,57.40
2019-05-29T20:42:30.470Z,58.80
2019-05-29T20:45:01.602Z,58.80
2019-05-29T20:47:33.601Z,57.70
2019-05-29T20:50:07.519Z,55.90
2019-05-29T20:52:39.479Z,53.30
2019-05-29T20:55:11.993Z,54.70
2019-05-29T20:57:43.194Z,51.50
2019-05-29T21:00:17.293Z,52.60
2019-05-29T21:02:49.833Z,52.80
2019-05-29T21:05:20.952Z,51.70
2019-05-29T21:07:52.141Z,51.00
2019-05-29T21:10:23.399Z,50.10
2019-05-29T21:12:54.519Z,50.00
2019-05-29T21:15:25.641Z,49.40
2019-05-29T21:17:56.775Z,49.40
2019-05-29T21:20:29.179Z,52.20
2019-05-29T21:23:00.648Z,53.10
2019-05-29T21:25:31.752Z,55.60
2019-05-29T21:28:03.645Z,57.30
2019-05-29T21:30:35.577Z,56.30
2019-05-29T21:33:06.836Z,55.50
2019-05-29T21:35:38.037Z,52.70
2019-05-29T21:38:09.135Z,51.00
2019-05-29T21:40:40.389Z,50.10
2019-05-29T21:43:11.547Z,48.20
2019-05-29T21:45:43.106Z,47.50
2019-05-29T21:48:14.477Z,47.00
2019-05-29T21:50:45.648Z,47.40
2019-05-29T21:53:16.771Z,47.50
2019-05-29T21:55:47.916Z,48.40
2019-05-29T21:58:19.091Z,47.80
2019-05-29T22:00:51.220Z,49.10
2019-05-29T22:03:22.345Z,49.50
2019-05-29T22:05:53.947Z,47.30
2019-05-29T22:08:25.208Z,47.00
2019-05-29T22:10:57.431Z,46.20
2019-05-29T22:13:28.789Z,45.50
2019-05-29T22:16:00.928Z,45.60
2019-05-29T22:18:32.265Z,47.60
2019-05-29T22:21:03.444Z,45.70
2019-05-29T22:23:34.590Z,47.90
2019-05-29T22:26:05.774Z,47.30
2019-05-29T22:28:36.891Z,46.80
2019-05-29T22:31:08.000Z,44.60
2019-05-29T22:33:39.118Z,46.30
2019-05-29T22:36:10.232Z,45.80
2019-05-29T22:38:41.366Z,45.30
2019-05-29T22:41:12.542Z,46.00
2019-05-29T22:43:43.658Z,46.70
2019-05-29T22:46:14.769Z,45.30
2019-05-29T22:48:45.899Z,45.20
2019-05-29T22:51:17.011Z,46.30
2019-05-29T22:53:48.190Z,45.80
2019-05-29T22:56:19.326Z,45.70
2019-05-29T22:58:51.886Z,46.80
2019-05-29T23:01:23.333Z,46.50
2019-05-29T23:03:54.459Z,47.80
2019-05-29T23:06:25.568Z,48.60
2019-05-29T23:08:58.392Z,50.10
2019-05-29T23:11:29.740Z,50.50
2019-05-29T23:14:00.867Z,52.30
2019-05-29T23:16:31.960Z,53.80
2019-05-29T23:19:03.078Z,54.40
2019-05-29T23:21:34.172Z,54.80
2019-05-29T23:24:05.366Z,54.70
2019-05-29T23:26:36.467Z,54.40
2019-05-29T23:29:07.578Z,54.80
2019-05-29T23:31:38.687Z,55.70
2019-05-29T23:34:09.877Z,56.60
2019-05-29T23:36:40.970Z,57.20
2019-05-29T23:39:12.174Z,57.30
2019-05-29T23:41:43.273Z,58.40
2019-05-29T23:44:14.403Z,58.80
2019-05-29T23:46:45.882Z,59.90
2019-05-29T23:49:17.075Z,63.10
2019-05-29T23:51:48.203Z,65.90
2019-05-29T23:54:19.401Z,70.80
2019-05-29T23:56:50.576Z,73.30
2019-05-29T23:59:21.703Z,74.80
